Time;durP1;ratioP1;P1;durP2;ratioP2;P2;SDS_P1;SDS_P2;PMS_P1;PMS_P2;Temp;Humidity;BMP_temperature;BMP_pressure;BME280_temperature;BME280_humidity;BME280_pressure;Samples;Min_cycle;Max_cycle;Signal;HPM_P1;HPM_P2
2023/01/13 00:03:39;;;;;;;1.30;1.00;;;15.80;54.40;;;;;;221815;1271;25377;-50
2023/01/13 00:08:48;;;;;;;1.30;1.20;;;15.80;54.50;;;;;;221768;1271;22945;-51
2023/01/13 00:13:53;;;;;;;1.30;1.20;;;15.80;54.40;;;;;;221702;1271;22646;-51
2023/01/13 00:18:57;;;;;;;2.20;1.40;;;15.80;55.00;;;;;;221884;1248;25694;-51
2023/01/13 00:24:03;;;;;;;1.40;1.00;;;15.90;54.30;;;;;;221656;1264;23873;-52
2023/01/13 00:29:07;;;;;;;1.40;1.30;;;15.80;54.50;;;;;;221769;1272;22737;-49
2023/01/13 00:34:12;;;;;;;1.20;1.10;;;15.90;54.80;;;;;;221695;1270;22705;-49
2023/01/13 00:39:16;;;;;;;1.30;1.20;;;15.90;54.40;;;;;;221633;1264;24033;-48
2023/01/13 00:44:21;;;;;;;1.40;1.30;;;15.80;54.70;;;;;;221785;1271;25383;-49
2023/01/13 00:49:25;;;;;;;1.00;1.00;;;15.80;54.30;;;;;;221763;1269;25195;-49
2023/01/13 00:54:30;;;;;;;0.80;0.80;;;15.80;54.50;;;;;;221893;1271;22583;-49
2023/01/13 00:59:34;;;;;;;1.20;1.10;;;15.80;54.70;;;;;;221697;1272;25252;-51
2023/01/13 01:04:39;;;;;;;1.30;1.20;;;15.70;55.00;;;;;;221862;1270;22553;-50
2023/01/13 01:09:43;;;;;;;1.30;1.20;;;15.80;54.80;;;;;;221752;1264;22542;-48
2023/01/13 01:14:47;;;;;;;0.80;0.80;;;15.80;54.80;;;;;;221671;1270;25344;-49
2023/01/13 01:19:52;;;;;;;1.00;0.90;;;15.80;54.80;;;;;;221772;1271;22618;-49
2023/01/13 01:24:57;;;;;;;1.20;1.10;;;15.80;54.70;;;;;;221711;1271;22657;-49
2023/01/13 01:30:01;;;;;;;0.80;0.80;;;15.80;54.90;;;;;;221757;1259;24257;-50
2023/01/13 01:35:06;;;;;;;0.90;0.90;;;15.80;54.60;;;;;;221866;1271;22544;-52
2023/01/13 01:40:11;;;;;;;1.10;1.00;;;15.80;54.70;;;;;;221770;1271;22654;-48
2023/01/13 01:45:24;;;;;;;1.00;0.90;;;15.80;54.70;;;;;;222010;1270;24209;-49
2023/01/13 01:50:30;;;;;;;2.70;1.10;;;15.70;54.80;;;;;;222172;1271;22890;-48
2023/01/13 01:55:36;;;;;;;1.10;1.00;;;15.70;55.10;;;;;;221687;1270;23140;-49
2023/01/13 02:00:40;;;;;;;1.00;0.90;;;15.70;54.80;;;;;;221759;1271;25404;-50
2023/01/13 02:05:44;;;;;;;0.70;0.70;;;15.70;54.90;;;;;;221762;1270;24205;-47
2023/01/13 02:10:53;;;;;;;1.00;0.80;;;15.60;55.10;;;;;;221648;1264;178724;-49
2023/01/13 02:16:15;;;;;;;1.40;1.20;;;15.60;55.30;;;;;;221751;1264;24272;-49
2023/01/13 02:21:38;;;;;;;;;;;15.60;55.00;;;;;;221768;1271;24218;-50
2023/01/13 02:27:14;;;;;;;1.10;1.00;;;15.60;55.20;;;;;;221759;1271;25307;-49
2023/01/13 02:32:32;;;;;;;1.20;1.10;;;15.60;55.30;;;;;;221735;1254;24257;-48
2023/01/13 02:37:41;;;;;;;0.80;0.80;;;15.70;54.90;;;;;;221801;1264;22757;-50
2023/01/13 02:48:21;;;;;;;1.00;0.90;;;15.60;55.50;;;;;;221803;1269;22530;-47
2023/01/13 02:53:35;;;;;;;1.00;1.00;;;15.70;55.10;;;;;;221813;1270;24349;-51
2023/01/13 02:58:42;;;;;;;0.80;0.80;;;15.70;55.10;;;;;;221813;1271;22580;-50
2023/01/13 03:03:48;;;;;;;1.10;1.00;;;15.60;55.00;;;;;;221754;1270;25481;-45
2023/01/13 03:09:04;;;;;;;1.00;0.90;;;15.60;55.10;;;;;;221716;1269;22557;-49
2023/01/13 03:14:40;;;;;;;1.10;1.00;;;15.60;55.40;;;;;;221700;1268;22599;-49
2023/01/13 03:20:03;;;;;;;1.30;0.80;;;15.60;55.40;;;;;;221685;1270;22554;-49
2023/01/13 03:25:08;;;;;;;0.90;0.80;;;15.60;54.90;;;;;;221686;1269;22604;-50
2023/01/13 03:30:32;;;;;;;0.90;0.90;;;15.60;55.30;;;;;;221649;1271;22741;-49
2023/01/13 03:35:42;;;;;;;1.00;0.90;;;15.50;55.50;;;;;;221687;1269;25383;-48
2023/01/13 03:40:53;;;;;;;1.00;0.90;;;15.60;55.30;;;;;;221849;1271;22632;-48
2023/01/13 03:46:05;;;;;;;0.90;0.80;;;15.60;55.20;;;;;;221726;1271;22642;-52
2023/01/13 03:51:14;;;;;;;1.00;0.90;;;15.60;55.40;;;;;;221877;1271;24216;-49
2023/01/13 03:56:41;;;;;;;0.80;0.70;;;15.60;55.20;;;;;;221717;1271;22618;-52
2023/01/13 04:01:52;;;;;;;0.80;0.60;;;15.50;55.40;;;;;;221614;1271;25342;-49
2023/01/13 04:07:28;;;;;;;0.70;0.70;;;15.50;55.50;;;;;;221900;1264;22532;-49
2023/01/13 04:13:01;;;;;;;0.80;0.80;;;15.50;55.80;;;;;;222054;1270;22639;-47
2023/01/13 04:18:16;;;;;;;0.60;0.50;;;15.50;55.20;;;;;;221949;1268;27779;-48
2023/01/13 04:23:21;;;;;;;0.90;0.90;;;15.60;55.20;;;;;;222162;1271;22534;-49
2023/01/13 04:28:26;;;;;;;0.80;0.80;;;15.50;56.00;;;;;;221942;1266;22593;-48
2023/01/13 04:33:30;;;;;;;0.80;0.80;;;15.60;55.30;;;;;;221798;1271;22610;-51
2023/01/13 04:38:34;;;;;;;1.00;0.90;;;15.60;54.70;;;;;;221805;1271;22537;-49
2023/01/13 04:43:39;;;;;;;1.00;0.90;;;15.60;55.10;;;;;;221729;1271;22583;-49
2023/01/13 04:48:43;;;;;;;0.60;0.50;;;15.60;55.00;;;;;;221832;1271;22551;-49
2023/01/13 04:53:47;;;;;;;0.70;0.70;;;15.60;55.50;;;;;;221729;1266;24219;-47
2023/01/13 04:58:51;;;;;;;0.60;0.50;;;15.60;55.20;;;;;;221868;1271;22615;-47
2023/01/13 05:03:56;;;;;;;0.60;0.60;;;15.60;55.10;;;;;;221647;1271;22528;-49
2023/01/13 05:09:01;;;;;;;0.90;0.70;;;15.70;55.00;;;;;;221811;1269;23291;-48
2023/01/13 05:19:35;;;;;;;1.80;0.60;;;15.60;55.50;;;;;;221722;1269;22528;-49
2023/01/13 05:30:04;;;;;;;0.80;0.80;;;15.60;55.40;;;;;;221748;1264;22545;-49
2023/01/13 05:35:08;;;;;;;0.50;0.50;;;15.60;55.00;;;;;;221703;1260;24209;-50
2023/01/13 05:45:37;;;;;;;0.90;0.70;;;15.50;55.60;;;;;;221743;1271;25362;-49
2023/01/13 05:50:42;;;;;;;0.80;0.80;;;15.50;55.50;;;;;;221848;1263;22998;-49
2023/01/13 05:55:47;;;;;;;1.20;0.80;;;15.50;55.50;;;;;;221687;1271;27193;-48
2023/01/13 06:00:52;;;;;;;0.80;0.70;;;15.40;55.70;;;;;;221820;1271;22538;-50
2023/01/13 06:06:01;;;;;;;0.70;0.70;;;15.40;55.60;;;;;;221952;1260;25509;-49
2023/01/13 06:11:05;;;;;;;1.80;0.70;;;15.40;55.60;;;;;;221758;1261;24293;-47
2023/01/13 06:16:10;;;;;;;0.70;0.60;;;15.50;55.30;;;;;;221903;1271;26280;-48
2023/01/13 06:21:15;;;;;;;0.60;0.60;;;15.60;55.30;;;;;;221870;1271;22547;-47
2023/01/13 06:26:22;;;;;;;0.50;0.50;;;15.40;55.50;;;;;;221714;1269;24174;-49
2023/01/13 06:31:27;;;;;;;0.80;0.70;;;15.50;55.50;;;;;;221871;1269;22534;-47
2023/01/13 06:36:36;;;;;;;0.60;0.60;;;15.50;55.60;;;;;;221635;1264;22531;-49
2023/01/13 06:47:05;;;;;;;0.70;0.70;;;15.50;55.80;;;;;;222016;1271;24241;-49
2023/01/13 06:52:09;;;;;;;0.70;0.70;;;15.40;55.40;;;;;;222127;1269;25320;-51
2023/01/13 06:57:13;;;;;;;1.30;0.90;;;15.50;55.50;;;;;;221666;1256;22553;-50
2023/01/13 07:02:17;;;;;;;0.70;0.60;;;15.50;55.50;;;;;;221592;1271;23889;-47
2023/01/13 07:07:22;;;;;;;0.60;0.60;;;15.40;55.50;;;;;;221817;1271;22605;-51
2023/01/13 07:12:26;;;;;;;0.60;0.60;;;15.40;56.10;;;;;;221874;1268;22543;-48
2023/01/13 07:17:30;;;;;;;0.50;0.50;;;15.40;55.60;;;;;;221836;1271;24222;-50
2023/01/13 07:22:34;;;;;;;0.90;0.90;;;15.40;55.70;;;;;;221776;1269;22553;-47
2023/01/13 07:27:39;;;;;;;0.60;0.60;;;15.40;55.60;;;;;;221918;1249;25333;-47
2023/01/13 07:32:43;;;;;;;0.80;0.80;;;15.40;55.50;;;;;;221844;1271;22666;-47
2023/01/13 07:37:48;;;;;;;0.50;0.50;;;15.40;55.70;;;;;;221722;1256;25438;-49
2023/01/13 07:48:15;;;;;;;0.60;0.50;;;15.40;55.60;;;;;;221733;1271;25351;-49
2023/01/13 07:53:20;;;;;;;0.70;0.70;;;15.40;55.60;;;;;;221825;1249;24198;-50
2023/01/13 07:58:26;;;;;;;1.00;0.70;;;15.30;55.70;;;;;;221688;1264;26510;-46
2023/01/13 08:03:30;;;;;;;0.60;0.60;;;15.40;55.60;;;;;;221870;1266;22667;-49
2023/01/13 08:08:35;;;;;;;0.40;0.40;;;15.30;55.70;;;;;;221740;1264;22521;-50
2023/01/13 08:13:39;;;;;;;0.90;0.70;;;15.50;55.50;;;;;;222282;1270;24334;-48
2023/01/13 08:18:43;;;;;;;0.60;0.60;;;15.40;55.50;;;;;;222267;1269;22533;-47
2023/01/13 08:23:47;;;;;;;1.30;0.60;;;15.40;55.50;;;;;;222098;1267;24229;-50
2023/01/13 08:28:52;;;;;;;0.50;0.50;;;15.40;55.70;;;;;;222105;1269;23200;-50
2023/01/13 08:33:56;;;;;;;0.60;0.60;;;15.40;55.60;;;;;;222268;1270;22543;-47
2023/01/13 08:39:01;;;;;;;0.50;0.50;;;15.40;56.00;;;;;;222320;1266;25437;-47
2023/01/13 08:44:07;;;;;;;0.80;0.80;;;15.40;55.60;;;;;;222192;1269;23365;-54
2023/01/13 08:49:12;;;;;;;0.60;0.60;;;15.40;55.60;;;;;;222326;1269;24189;-50
2023/01/13 08:54:17;;;;;;;0.80;0.80;;;15.40;55.50;;;;;;222152;1267;22661;-50
2023/01/13 08:59:21;;;;;;;0.50;0.40;;;15.40;55.50;;;;;;222576;1262;22541;-50
2023/01/13 09:04:27;;;;;;;0.50;0.50;;;15.50;55.20;;;;;;222267;1247;24230;-49
2023/01/13 09:09:32;;;;;;;0.60;0.60;;;15.60;55.10;;;;;;222211;1256;24215;-50
2023/01/13 09:14:38;;;;;;;0.70;0.70;;;15.50;55.20;;;;;;222477;1266;22652;-48
2023/01/13 09:19:42;;;;;;;0.50;0.50;;;15.50;55.30;;;;;;222167;1263;22649;-52
2023/01/13 09:24:47;;;;;;;0.60;0.60;;;15.50;55.20;;;;;;222214;1266;22541;-49
2023/01/13 09:29:51;;;;;;;4.00;1.10;;;15.50;54.80;;;;;;222283;1256;24212;-49
2023/01/13 09:35:01;;;;;;;1.00;0.70;;;15.60;55.20;;;;;;222330;1266;23107;-49
2023/01/13 09:40:21;;;;;;;0.50;0.40;;;15.50;55.30;;;;;;222293;1261;22549;-49
2023/01/13 09:45:31;;;;;;;0.50;0.50;;;15.50;55.20;;;;;;222190;1270;22540;-48
2023/01/13 09:50:47;;;;;;;0.60;0.50;;;15.60;55.20;;;;;;222156;1263;24301;-48
2023/01/13 09:55:51;;;;;;;0.70;0.60;;;15.60;55.00;;;;;;222064;1267;22546;-48
2023/01/13 10:01:18;;;;;;;0.70;0.70;;;15.50;55.50;;;;;;222183;1263;25620;-49
2023/01/13 10:06:37;;;;;;;0.70;0.50;;;15.50;55.40;;;;;;222649;1262;24239;-47
2023/01/13 10:17:39;;;;;;;0.60;0.60;;;15.60;55.00;;;;;;222145;1262;22539;-47
2023/01/13 10:22:58;;;;;;;0.70;0.40;;;15.60;55.10;;;;;;222201;1266;25303;-47
2023/01/13 10:28:14;;;;;;;0.50;0.50;;;15.60;55.20;;;;;;222158;1269;22524;-51
2023/01/13 10:33:27;;;;;;;0.50;0.50;;;15.50;55.20;;;;;;222072;1266;22675;-48
2023/01/13 10:38:43;;;;;;;0.90;0.50;;;15.70;54.60;;;;;;222222;1263;22534;-48
2023/01/13 10:43:50;;;;;;;0.50;0.50;;;15.50;55.70;;;;;;222231;1269;22540;-50
2023/01/13 10:48:57;;;;;;;0.60;0.60;;;15.60;55.20;;;;;;222131;1269;23917;-49
2023/01/13 10:54:13;;;;;;;0.60;0.60;;;15.60;55.50;;;;;;222355;1269;22579;-47
2023/01/13 10:59:25;;;;;;;0.40;0.40;;;15.60;55.20;;;;;;222048;1268;22963;-50
2023/01/13 11:04:34;;;;;;;0.30;0.30;;;15.70;55.30;;;;;;222340;1269;22985;-50
2023/01/13 11:09:38;;;;;;;0.50;0.50;;;15.60;55.20;;;;;;222512;1269;23108;-49
2023/01/13 11:14:45;;;;;;;0.40;0.40;;;15.70;55.10;;;;;;222102;1266;23909;-49
2023/01/13 11:19:57;;;;;;;0.60;0.60;;;15.60;55.40;;;;;;222449;1263;22550;-49
2023/01/13 11:25:09;;;;;;;0.60;0.60;;;15.70;55.20;;;;;;222463;1269;21889;-51
2023/01/13 11:30:21;;;;;;;0.60;0.60;;;15.80;55.30;;;;;;222129;1263;25205;-49
2023/01/13 11:35:26;;;;;;;1.70;0.50;;;15.70;55.00;;;;;;221476;1273;25512;-51
2023/01/13 11:40:39;;;;;;;0.50;0.50;;;15.70;55.20;;;;;;221599;1269;22531;-52
2023/01/13 11:45:48;;;;;;;0.50;0.50;;;15.50;55.50;;;;;;221800;1266;22565;-49
2023/01/13 11:51:03;;;;;;;0.60;0.50;;;15.50;55.60;;;;;;221560;1273;22571;-52
2023/01/13 11:56:45;;;;;;;0.50;0.50;;;15.60;55.50;;;;;;221988;1273;22642;-49
2023/01/13 12:02:10;;;;;;;0.50;0.50;;;15.60;55.90;;;;;;221412;1266;22543;-48
2023/01/13 12:07:26;;;;;;;0.60;0.60;;;15.50;55.70;;;;;;222293;1269;22544;-51
2023/01/13 12:12:59;;;;;;;0.60;0.60;;;15.70;55.30;;;;;;222413;1263;24196;-49
2023/01/13 12:18:33;;;;;;;0.70;0.70;;;15.80;55.10;;;;;;222176;1269;25468;-51
2023/01/13 12:23:50;;;;;;;0.70;0.70;;;15.80;55.10;;;;;;222471;1248;22593;-50
2023/01/13 12:29:04;;;;;;;0.70;0.60;;;15.80;54.90;;;;;;222267;1269;24214;-50
2023/01/13 12:34:17;;;;;;;0.70;0.70;;;15.80;54.60;;;;;;222428;1269;22640;-51
2023/01/13 12:39:48;;;;;;;0.60;0.60;;;15.80;54.80;;;;;;222534;1269;22551;-48
2023/01/13 12:45:08;;;;;;;0.70;0.70;;;15.70;55.50;;;;;;222340;1270;22562;-47
2023/01/13 12:50:21;;;;;;;0.70;0.70;;;15.70;55.30;;;;;;222413;1266;22615;-47
2023/01/13 12:55:30;;;;;;;0.90;0.70;;;15.70;55.50;;;;;;222440;1246;24260;-49
2023/01/13 13:00:40;;;;;;;0.70;0.70;;;15.70;55.40;;;;;;222142;1269;22583;-46
2023/01/13 13:06:07;;;;;;;0.70;0.60;;;15.80;55.40;;;;;;222320;1269;22646;-50
2023/01/13 13:16:50;;;;;;;0.70;0.70;;;16.00;54.50;;;;;;222522;1270;22542;-49
2023/01/13 13:22:17;;;;;;;0.60;0.60;;;16.00;54.40;;;;;;222241;1269;22745;-50
2023/01/13 13:27:30;;;;;;;0.70;0.60;;;15.90;54.80;;;;;;222144;1269;26692;-50
2023/01/13 13:32:37;;;;;;;;;;;15.90;54.90;;;;;;222114;1263;25275;-51
2023/01/13 13:49:02;;;;;;;0.50;0.50;;;15.90;54.80;;;;;;222148;1266;22750;-46
2023/01/13 13:54:13;;;;;;;0.70;0.70;;;15.90;54.90;;;;;;222270;1270;26077;-48
2023/01/13 13:59:22;;;;;;;0.80;0.70;;;15.90;54.80;;;;;;222495;1270;22760;-48
2023/01/13 14:04:34;;;;;;;0.70;0.70;;;15.80;55.20;;;;;;222454;1266;22532;-51
2023/01/13 14:09:44;;;;;;;0.70;0.50;;;15.80;55.10;;;;;;222284;1266;218442;-50
2023/01/13 14:14:49;;;;;;;0.60;0.60;;;15.80;55.10;;;;;;222461;1265;26613;-49
2023/01/13 14:20:04;;;;;;;0.80;0.70;;;15.80;55.00;;;;;;222265;1266;22538;-49
2023/01/13 14:25:27;;;;;;;0.60;0.60;;;15.80;55.10;;;;;;222270;1269;22758;-49
2023/01/13 14:30:32;;;;;;;0.60;0.60;;;15.80;55.10;;;;;;222580;1270;22762;-48
2023/01/13 14:35:36;;;;;;;0.50;0.50;;;15.80;55.10;;;;;;222450;1266;22699;-50
2023/01/13 14:40:44;;;;;;;0.60;0.60;;;15.80;55.40;;;;;;222006;1266;25593;-46
2023/01/13 14:46:01;;;;;;;0.40;0.40;;;15.80;55.30;;;;;;222112;1266;22527;-47
2023/01/13 14:51:09;;;;;;;1.30;0.70;;;15.80;55.60;;;;;;222217;1270;22550;-47
2023/01/13 14:56:41;;;;;;;0.70;0.70;;;15.80;55.10;;;;;;222358;1266;22606;-46
2023/01/13 15:01:46;;;;;;;0.50;0.50;;;15.80;55.00;;;;;;222134;1266;23880;-48
2023/01/13 15:06:54;;;;;;;1.00;0.70;;;15.80;55.40;;;;;;222094;1264;22524;-49
2023/01/13 15:11:58;;;;;;;0.60;0.60;;;15.80;55.40;;;;;;222469;1270;22699;-50
2023/01/13 15:17:14;;;;;;;0.60;0.60;;;15.80;55.10;;;;;;222311;1270;23073;-49
2023/01/13 15:22:18;;;;;;;0.90;0.80;;;15.80;55.20;;;;;;222201;1264;22530;-51
2023/01/13 15:27:25;;;;;;;0.80;0.80;;;15.90;55.20;;;;;;222121;1266;22618;-48
2023/01/13 15:32:29;;;;;;;0.70;0.60;;;15.90;54.80;;;;;;221967;1270;23122;-52
2023/01/13 15:37:33;;;;;;;0.80;0.80;;;15.80;55.10;;;;;;221886;1269;22538;-49
2023/01/13 15:48:02;;;;;;;0.70;0.70;;;15.80;55.00;;;;;;222157;1270;24059;-50
2023/01/13 15:53:06;;;;;;;0.80;0.80;;;15.80;54.90;;;;;;222277;1269;24172;-49
2023/01/13 15:58:12;;;;;;;0.70;0.70;;;15.90;54.80;;;;;;222284;1269;22535;-48
2023/01/13 16:03:17;;;;;;;0.90;0.90;;;15.80;54.90;;;;;;222053;1248;24250;-49
2023/01/13 16:08:22;;;;;;;0.70;0.70;;;15.90;54.90;;;;;;221991;1270;22762;-51
2023/01/13 16:13:26;;;;;;;0.70;0.70;;;15.80;55.20;;;;;;222318;1270;24353;-49
2023/01/13 16:18:30;;;;;;;0.60;0.50;;;15.80;54.90;;;;;;222260;1269;22527;-50
2023/01/13 16:23:34;;;;;;;0.60;0.60;;;15.80;55.30;;;;;;222293;1270;22618;-47
2023/01/13 16:28:38;;;;;;;1.20;1.10;;;15.80;55.10;;;;;;222383;1267;23884;-48
2023/01/13 16:33:43;;;;;;;0.70;0.60;;;15.80;55.00;;;;;;222182;1266;24771;-49
2023/01/13 16:38:48;;;;;;;0.90;0.80;;;15.80;55.20;;;;;;222133;1270;22530;-48
2023/01/13 16:43:53;;;;;;;1.00;0.80;;;15.80;54.70;;;;;;222292;1254;24216;-49
2023/01/13 16:49:01;;;;;;;0.60;0.60;;;15.80;55.00;;;;;;222306;1267;24203;-50
2023/01/13 16:54:06;;;;;;;0.90;0.90;;;15.80;55.00;;;;;;222379;1263;22696;-47
2023/01/13 16:59:13;;;;;;;0.70;0.70;;;15.80;55.00;;;;;;222355;1266;25632;-48
2023/01/13 17:04:20;;;;;;;1.10;0.90;;;15.90;54.90;;;;;;222436;1270;24216;-49
2023/01/13 17:09:27;;;;;;;0.80;0.80;;;15.80;54.90;;;;;;222319;1266;24105;-51
2023/01/13 17:14:31;;;;;;;0.80;0.80;;;15.80;55.00;;;;;;222237;1266;23682;-52
2023/01/13 17:19:35;;;;;;;0.70;0.70;;;15.90;55.00;;;;;;222264;1265;22750;-51
2023/01/13 17:24:41;;;;;;;0.80;0.80;;;15.80;55.00;;;;;;222185;1269;24262;-47
2023/01/13 17:29:46;;;;;;;0.80;0.80;;;15.80;54.90;;;;;;222445;1270;24238;-50
2023/01/13 17:34:52;;;;;;;1.00;0.80;;;15.80;55.10;;;;;;222205;1256;24238;-48
2023/01/13 17:39:57;;;;;;;1.10;1.00;;;15.80;55.00;;;;;;222253;1247;24362;-49
2023/01/13 17:45:01;;;;;;;0.80;0.80;;;15.80;55.10;;;;;;222300;1264;22531;-50
2023/01/13 17:50:06;;;;;;;0.90;0.90;;;15.70;55.30;;;;;;222302;1270;24200;-49
2023/01/13 17:55:10;;;;;;;1.20;1.10;;;15.60;55.50;;;;;;222158;1269;23838;-48
2023/01/13 18:00:16;;;;;;;1.20;1.10;;;15.70;55.20;;;;;;222385;1266;22534;-47
2023/01/13 18:05:20;;;;;;;0.90;0.90;;;15.80;55.40;;;;;;222161;1264;24079;-50
2023/01/13 18:10:25;;;;;;;1.60;1.40;;;15.80;55.20;;;;;;222230;1252;24189;-51
2023/01/13 18:15:30;;;;;;;1.40;1.30;;;15.80;55.10;;;;;;222349;1270;24315;-52
2023/01/13 18:31:23;;;;;;;1.50;1.40;;;15.70;55.50;;;;;;222176;1270;22985;-48
2023/01/13 18:36:28;;;;;;;1.30;1.20;;;15.80;55.00;;;;;;222358;1270;24295;-50
2023/01/13 18:47:10;;;;;;;1.60;1.50;;;15.80;55.20;;;;;;222059;1270;25011;-48
2023/01/13 18:52:15;;;;;;;1.70;1.50;;;15.80;55.10;;;;;;222187;1270;24244;-49
2023/01/13 18:57:21;;;;;;;1.10;1.00;;;15.70;55.30;;;;;;222309;1267;25583;-49
2023/01/13 19:02:28;;;;;;;1.50;1.40;;;15.70;55.40;;;;;;222113;1266;23316;-47
2023/01/13 19:07:35;;;;;;;1.30;1.20;;;15.80;55.00;;;;;;222505;1269;22648;-49
2023/01/13 19:12:41;;;;;;;1.60;1.50;;;15.70;55.20;;;;;;222378;1270;25496;-50
2023/01/13 19:17:46;;;;;;;1.50;1.40;;;15.70;55.50;;;;;;222450;1270;24404;-48
2023/01/13 19:22:55;;;;;;;2.20;1.70;;;15.60;55.40;;;;;;222335;1270;25641;-48
2023/01/13 19:27:59;;;;;;;1.80;1.40;;;15.70;55.20;;;;;;222364;1267;25335;-47
2023/01/13 19:33:03;;;;;;;1.40;1.30;;;15.70;55.10;;;;;;222156;1269;23906;-51
2023/01/13 19:38:09;;;;;;;1.60;1.50;;;15.70;55.10;;;;;;222073;1269;24066;-48
2023/01/13 19:48:37;;;;;;;1.70;1.60;;;15.70;55.40;;;;;;222465;1248;25425;-48
2023/01/13 19:53:43;;;;;;;1.70;1.60;;;15.70;55.10;;;;;;222355;1264;24859;-48
2023/01/13 19:58:50;;;;;;;1.70;1.60;;;15.60;55.60;;;;;;222088;1270;22545;-50
2023/01/13 20:04:01;;;;;;;2.10;1.90;;;15.60;55.60;;;;;;222021;1270;24237;-48
2023/01/13 20:09:06;;;;;;;1.70;1.60;;;15.60;55.60;;;;;;222355;1270;24411;-47
2023/01/13 20:14:11;;;;;;;1.70;1.60;;;15.70;55.30;;;;;;222131;1267;22595;-49
2023/01/13 20:19:17;;;;;;;2.00;1.90;;;15.50;55.30;;;;;;222324;1266;23747;-48
2023/01/13 20:24:27;;;;;;;2.10;1.90;;;15.50;55.60;;;;;;222305;1270;24204;-48
2023/01/13 20:29:33;;;;;;;1.80;1.70;;;15.50;55.60;;;;;;222356;1268;22742;-50
2023/01/13 20:34:38;;;;;;;3.60;3.00;;;15.50;55.70;;;;;;222079;1270;22654;-49
2023/01/13 20:39:45;;;;;;;4.60;3.40;;;15.60;55.60;;;;;;222092;1270;22628;-51
2023/01/13 20:44:49;;;;;;;3.30;3.00;;;15.60;55.40;;;;;;222525;1260;25429;-47
2023/01/13 20:49:55;;;;;;;2.70;2.00;;;15.60;55.50;;;;;;222290;1269;25613;-49
2023/01/13 20:55:00;;;;;;;3.90;3.50;;;15.60;55.30;;;;;;222445;1254;23787;-51
2023/01/13 21:00:06;;;;;;;3.30;2.70;;;15.60;55.30;;;;;;222201;1270;22530;-52
2023/01/13 21:05:11;;;;;;;3.10;2.80;;;15.50;55.60;;;;;;222245;1267;24086;-47
2023/01/13 21:10:16;;;;;;;2.50;2.00;;;15.50;55.50;;;;;;222113;1270;24301;-50
2023/01/13 21:15:21;;;;;;;3.10;2.50;;;15.60;55.50;;;;;;222299;1267;24338;-48
2023/01/13 21:20:25;;;;;;;2.20;2.00;;;15.60;55.30;;;;;;222236;1270;23877;-46
2023/01/13 21:25:30;;;;;;;1.80;1.70;;;15.50;55.60;;;;;;222152;1263;22528;-49
2023/01/13 21:30:38;;;;;;;3.10;2.50;;;15.50;55.70;;;;;;222198;1264;22656;-51
2023/01/13 21:35:42;;;;;;;2.00;1.80;;;15.40;55.90;;;;;;222254;1270;23060;-49
2023/01/13 21:41:05;;;;;;;2.40;2.00;;;15.40;55.90;;;;;;222333;1267;25803;-49
2023/01/13 21:51:40;;;;;;;2.40;2.20;;;15.40;55.80;;;;;;222091;1270;22888;-49
2023/01/13 21:56:47;;;;;;;2.20;2.00;;;15.50;55.80;;;;;;222002;1270;23925;-47
2023/01/13 22:01:51;;;;;;;1.50;1.40;;;15.40;55.70;;;;;;222197;1264;23101;-47
2023/01/13 22:07:15;;;;;;;2.40;2.20;;;15.40;55.80;;;;;;222110;1270;25445;-51
2023/01/13 22:12:22;;;;;;;1.60;1.50;;;15.30;56.00;;;;;;222147;1270;22617;-47
2023/01/13 22:17:30;;;;;;;2.40;2.00;;;15.40;55.90;;;;;;222343;1266;23130;-48
2023/01/13 22:22:35;;;;;;;2.20;2.00;;;15.30;56.10;;;;;;222143;1262;25261;-50
2023/01/13 22:27:42;;;;;;;1.80;1.60;;;15.30;56.20;;;;;;222373;1270;22536;-49
2023/01/13 22:32:46;;;;;;;2.10;1.80;;;15.30;56.20;;;;;;222328;1267;23905;-51
2023/01/13 22:37:50;;;;;;;2.70;1.70;;;15.20;56.20;;;;;;222398;1267;22667;-50
2023/01/13 22:42:54;;;;;;;1.80;1.70;;;15.20;56.10;;;;;;222128;1267;22571;-48
2023/01/13 22:47:58;;;;;;;1.60;1.50;;;15.20;56.10;;;;;;222145;1270;22524;-50
2023/01/13 22:53:04;;;;;;;2.30;1.50;;;15.30;56.10;;;;;;222334;1267;22796;-48
2023/01/13 22:58:08;;;;;;;1.70;1.60;;;15.20;56.10;;;;;;222469;1264;22733;-52
2023/01/13 23:03:12;;;;;;;1.40;1.30;;;15.30;55.90;;;;;;222299;1270;23924;-46
2023/01/13 23:08:16;;;;;;;1.70;1.60;;;15.30;56.00;;;;;;222113;1270;24981;-48
2023/01/13 23:13:20;;;;;;;1.90;1.40;;;15.30;56.10;;;;;;222000;1257;24250;-49
2023/01/13 23:18:25;;;;;;;2.20;1.70;;;15.20;56.10;;;;;;222256;1265;26522;-50
2023/01/13 23:23:30;;;;;;;4.90;1.80;;;15.20;56.30;;;;;;222453;1255;24277;-47
2023/01/13 23:28:35;;;;;;;2.10;1.50;;;15.20;56.10;;;;;;222237;1270;23873;-50
2023/01/13 23:33:40;;;;;;;1.90;1.60;;;15.20;56.10;;;;;;222352;1263;24356;-45
2023/01/13 23:38:45;;;;;;;2.00;1.80;;;15.20;56.10;;;;;;222071;1267;22539;-51
2023/01/13 23:43:59;;;;;;;1.40;1.30;;;15.20;56.30;;;;;;222162;1270;22556;-51
2023/01/13 23:49:03;;;;;;;1.60;1.50;;;15.20;56.20;;;;;;222341;1270;24226;-49
2023/01/13 23:54:07;;;;;;;2.00;1.80;;;15.20;56.10;;;;;;222273;1269;22650;-48
2023/01/13 23:59:12;;;;;;;1.70;1.60;;;15.20;56.50;;;;;;222091;1270;22755;-50
